Time;durP1;ratioP1;P1;durP2;ratioP2;P2;SDS_P1;SDS_P2;PMS_P1;PMS_P2;Temp;Humidity;BMP_temperature;BMP_pressure;BME280_temperature;BME280_humidity;BME280_pressure;Samples;Min_cycle;Max_cycle;Signal;HPM_P1;HPM_P2
2021/08/22 00:01:04;;;;;;;2.03;1.92;;;;;;;14.30;76.20;101839.16;6337315;28;20205;-76
2021/08/22 00:04:11;;;;;;;1.50;1.50;;;;;;;14.43;75.89;101841.09;6337092;28;20294;-76
2021/08/22 00:07:16;;;;;;;2.05;1.65;;;;;;;14.25;77.40;101838.16;6336846;28;20482;-76
2021/08/22 00:10:21;;;;;;;1.63;1.52;;;;;;;14.21;77.13;101840.50;6337883;28;20182;-76
2021/08/22 00:13:28;;;;;;;1.60;1.50;;;;;;;14.29;76.74;101836.66;6337222;28;20205;-77
2021/08/22 00:16:33;;;;;;;2.15;1.48;;;;;;;14.33;76.77;101829.69;6337393;28;20367;-76
2021/08/22 00:19:38;;;;;;;1.65;1.65;;;;;;;14.26;77.55;101839.84;6338145;28;20190;-76
2021/08/22 00:22:42;;;;;;;1.85;1.70;;;;;;;14.21;78.49;101836.91;6336727;28;20183;-76
2021/08/22 00:25:46;;;;;;;1.70;1.60;;;;;;;14.17;78.08;101841.16;6337935;28;20317;-76
2021/08/22 00:28:54;;;;;;;7.15;6.55;;;;;;;14.21;77.58;101847.88;6336179;28;20214;-76
2021/08/22 00:32:01;;;;;;;111.80;62.25;;;;;;;14.22;77.35;101838.59;6337525;28;20183;-76
2021/08/22 00:35:07;;;;;;;3.25;3.15;;;;;;;14.25;77.05;101843.66;6336517;28;20467;-76
2021/08/22 00:38:14;;;;;;;2.78;1.85;;;;;;;14.24;77.08;101841.97;6336432;28;20281;-77
2021/08/22 00:41:18;;;;;;;4.38;1.88;;;;;;;14.26;76.75;101845.31;6337708;28;20183;-76
2021/08/22 00:44:23;;;;;;;2.20;2.10;;;;;;;14.24;76.88;101836.47;6339072;28;20191;-76
2021/08/22 00:47:29;;;;;;;1.83;1.83;;;;;;;14.12;78.22;101854.69;6339620;28;20206;-76
2021/08/22 00:50:35;;;;;;;1.70;1.70;;;;;;;14.18;77.50;101851.03;6338251;28;20244;-76
2021/08/22 00:53:39;;;;;;;1.88;1.88;;;;;;;14.26;76.99;101850.81;6338044;28;20182;-77
2021/08/22 00:56:45;;;;;;;2.40;2.30;;;;;;;14.35;76.79;101855.06;6337892;28;20194;-77
2021/08/22 00:59:52;;;;;;;6.03;2.22;;;;;;;14.24;77.63;101848.28;6336334;28;20474;-77
2021/08/22 01:03:08;;;;;;;3.53;2.00;;;;;;;13.98;79.24;101858.50;6338057;28;20241;-77
2021/08/22 01:06:20;;;;;;;2.05;1.95;;;;;;;13.90;79.66;101853.22;6336745;28;20190;-77
2021/08/22 01:09:29;;;;;;;2.30;2.20;;;;;;;13.81;80.54;101869.91;6336495;28;20218;-77
2021/08/22 01:12:41;;;;;;;1.92;1.90;;;;;;;14.04;79.01;101863.13;6337249;28;20205;-77
2021/08/22 01:15:49;;;;;;;2.20;2.10;;;;;;;13.96;79.67;101860.63;6336582;28;20215;-77
2021/08/22 01:18:58;;;;;;;2.75;2.00;;;;;;;14.04;79.40;101871.38;6337151;28;20243;-77
2021/08/22 01:22:07;;;;;;;2.90;2.30;;;;;;;14.11;79.44;101863.94;6337313;28;20183;-77
2021/08/22 01:25:13;;;;;;;2.60;2.40;;;;;;;14.09;79.11;101864.19;6337379;28;20215;-77
2021/08/22 01:28:18;;;;;;;2.30;2.30;;;;;;;13.95;80.21;101858.91;6337302;28;20191;-77
2021/08/22 01:31:26;;;;;;;2.53;2.20;;;;;;;13.97;80.33;101867.81;6337155;28;20187;-77
2021/08/22 01:34:32;;;;;;;5.25;2.58;;;;;;;13.85;81.48;101858.53;6337288;28;20264;-77
2021/08/22 01:37:38;;;;;;;5.03;2.60;;;;;;;13.86;81.55;101866.56;6336074;28;20219;-77
2021/08/22 01:40:47;;;;;;;3.85;2.55;;;;;;;13.91;81.29;101868.66;6340561;28;20415;-77
2021/08/22 01:43:52;;;;;;;2.20;2.10;;;;;;;14.00;81.48;101867.34;6341815;28;20214;-77
2021/08/22 01:46:57;;;;;;;2.35;2.25;;;;;;;13.96;81.39;101871.59;6341449;28;20269;-77
2021/08/22 01:50:03;;;;;;;2.10;2.00;;;;;;;13.94;81.37;101869.06;6341622;28;20194;-77
2021/08/22 01:53:09;;;;;;;3.97;2.25;;;;;;;13.97;81.67;101867.81;6341699;28;20250;-77
2021/08/22 01:56:18;;;;;;;1.98;1.88;;;;;;;13.86;82.07;101860.22;6341547;28;20187;-77
2021/08/22 01:59:22;;;;;;;2.08;2.00;;;;;;;13.87;82.36;101870.16;6341364;28;20211;-77
2021/08/22 02:02:26;;;;;;;1.88;1.80;;;;;;;13.83;82.46;101872.47;6340462;28;20272;-77
2021/08/22 02:05:36;;;;;;;1.75;1.75;;;;;;;13.87;82.45;101867.41;6340749;28;20218;-77
2021/08/22 02:08:41;;;;;;;2.78;1.98;;;;;;;13.93;82.14;101877.50;6340321;28;20186;-77
2021/08/22 02:11:50;;;;;;;2.30;2.00;;;;;;;13.94;82.28;101868.22;6340382;28;20183;-77
2021/08/22 02:15:01;;;;;;;2.00;1.90;;;;;;;14.00;81.57;101872.84;6341189;28;20217;-77
2021/08/22 02:18:16;;;;;;;2.38;1.88;;;;;;;14.06;80.34;101867.34;6339805;28;20433;-77
2021/08/22 02:21:22;;;;;;;1.70;1.60;;;;;;;14.05;81.15;101870.28;6341152;28;20249;-77
2021/08/22 02:24:26;;;;;;;1.70;1.70;;;;;;;13.94;80.43;101879.19;6339701;28;20403;-77
2021/08/22 02:27:31;;;;;;;1.60;1.60;;;;;;;13.91;80.53;101880.47;6339525;28;20447;-77
2021/08/22 02:30:36;;;;;;;1.95;1.60;;;;;;;13.93;78.91;101877.50;6340863;28;20187;-77
2021/08/22 02:33:41;;;;;;;2.22;1.40;;;;;;;13.97;78.49;101884.25;6340451;28;20183;-77
2021/08/22 02:36:46;;;;;;;1.45;1.45;;;;;;;13.95;77.44;101869.91;6339442;28;20435;-77
2021/08/22 02:39:50;;;;;;;3.88;1.30;;;;;;;13.89;77.91;101876.25;6340715;28;20213;-77
2021/08/22 02:42:57;;;;;;;1.50;1.30;;;;;;;13.93;76.83;101878.34;6340077;28;20190;-77
2021/08/22 02:46:01;;;;;;;1.38;1.38;;;;;;;13.95;77.32;101880.88;6340440;28;20250;-77
2021/08/22 02:49:05;;;;;;;1.40;1.40;;;;;;;13.97;76.82;101884.25;6339995;28;20208;-77
2021/08/22 02:52:13;;;;;;;1.20;1.20;;;;;;;13.93;76.81;101883.00;6339152;28;20183;-77
2021/08/22 02:55:17;;;;;;;1.63;1.33;;;;;;;13.84;77.45;101884.28;6339168;28;20250;-77
2021/08/22 02:58:22;;;;;;;2.00;1.42;;;;;;;13.78;76.98;101885.97;6338692;28;20555;-77
2021/08/22 03:01:26;;;;;;;2.30;1.20;;;;;;;13.80;76.41;101884.72;6339815;28;20199;-77
2021/08/22 03:04:30;;;;;;;2.08;1.30;;;;;;;13.77;76.78;101890.63;6338889;28;20445;-77
2021/08/22 03:07:36;;;;;;;1.52;1.52;;;;;;;13.70;77.00;101895.28;6338939;28;20215;-77
2021/08/22 03:10:40;;;;;;;1.20;1.20;;;;;;;13.63;76.83;101897.19;6339539;28;20191;-77
2021/08/22 03:13:44;;;;;;;1.15;1.15;;;;;;;13.65;74.06;101892.31;6338585;28;20470;-77
2021/08/22 03:16:48;;;;;;;2.00;1.27;;;;;;;13.65;74.92;101892.31;6339360;28;20248;-77
2021/08/22 03:19:53;;;;;;;1.38;1.27;;;;;;;13.70;75.10;101894.41;6339355;28;20211;-77
2021/08/22 03:22:59;;;;;;;1.50;1.50;;;;;;;13.62;73.63;101895.47;6338109;28;20497;-77
2021/08/22 03:26:03;;;;;;;1.20;1.20;;;;;;;13.73;73.65;101894.84;6339056;28;20183;-77
2021/08/22 03:29:14;;;;;;;1.02;1.02;;;;;;;13.74;73.93;101896.50;6338067;28;20374;-77
2021/08/22 03:32:18;;;;;;;2.13;1.25;;;;;;;13.71;73.47;101896.94;6337976;28;20379;-77
2021/08/22 03:35:24;;;;;;;2.10;1.30;;;;;;;13.62;71.91;101903.72;6337872;28;20295;-77
2021/08/22 03:38:34;;;;;;;1.30;1.20;;;;;;;13.58;72.99;101907.94;6339074;28;20183;-77
2021/08/22 03:41:38;;;;;;;1.30;1.30;;;;;;;13.59;73.84;101904.13;6337897;28;20369;-77
2021/08/22 03:44:43;;;;;;;1.23;1.23;;;;;;;13.68;71.90;101904.75;6338659;28;20214;-77
2021/08/22 03:47:47;;;;;;;1.20;1.20;;;;;;;13.60;72.78;101910.44;6338678;28;20189;-77
2021/08/22 03:50:52;;;;;;;1.65;1.23;;;;;;;13.59;71.94;101909.59;6337571;28;20558;-77
2021/08/22 03:53:58;;;;;;;1.38;1.27;;;;;;;13.67;70.59;101912.13;6339029;28;20186;-77
2021/08/22 03:57:02;;;;;;;1.00;1.00;;;;;;;13.67;71.06;101903.91;6338875;28;20356;-77
2021/08/22 04:00:08;;;;;;;1.20;1.20;;;;;;;13.54;69.02;101914.03;6338343;28;20211;-77
2021/08/22 04:03:17;;;;;;;1.20;1.20;;;;;;;13.44;69.74;101914.44;6337306;28;20242;-77
2021/08/22 04:06:48;;;;;;;1.85;1.85;;;;;;;13.55;70.52;101913.84;6336749;28;20209;-77
2021/08/22 04:09:53;;;;;;;1.00;1.00;;;;;;;13.43;69.50;101918.22;6338501;28;20249;-77
2021/08/22 04:13:00;;;;;;;1.10;1.10;;;;;;;13.58;68.66;101921.66;6337361;28;20431;-77
2021/08/22 04:16:05;;;;;;;1.10;1.10;;;;;;;13.53;69.78;101915.91;6338479;28;20246;-77
2021/08/22 04:19:09;;;;;;;1.10;1.10;;;;;;;13.57;68.47;101917.22;6337819;28;20274;-77
2021/08/22 04:22:13;;;;;;;1.35;1.10;;;;;;;13.55;68.11;101924.81;6338145;28;20260;-77
2021/08/22 04:25:19;;;;;;;1.23;1.23;;;;;;;13.46;68.62;101920.56;6337719;28;20242;-77
2021/08/22 04:28:37;;;;;;;1.13;1.13;;;;;;;13.52;69.38;101930.69;6337742;28;20182;-77
2021/08/22 04:31:41;;;;;;;1.15;1.15;;;;;;;13.52;68.80;101919.72;6337644;28;20254;-77
2021/08/22 04:34:46;;;;;;;2.45;1.20;;;;;;;13.45;69.08;101918.03;6337369;28;20246;-78
2021/08/22 04:37:50;;;;;;;0.90;0.90;;;;;;;13.32;68.21;101934.47;6337582;28;20263;-76
2021/08/22 04:40:55;;;;;;;1.20;1.20;;;;;;;13.40;68.80;101926.91;6337823;28;20280;-76
2021/08/22 04:44:01;;;;;;;1.05;1.05;;;;;;;13.42;67.28;101930.28;6336428;28;20498;-77
2021/08/22 04:47:06;;;;;;;1.20;1.20;;;;;;;13.57;67.89;101943.78;6337305;28;20183;-76
2021/08/22 04:50:12;;;;;;;1.15;1.15;;;;;;;13.48;66.83;101934.91;6338497;28;20224;-76
2021/08/22 04:53:16;;;;;;;1.17;1.17;;;;;;;13.60;66.98;101944.22;6338333;28;20182;-76
2021/08/22 04:56:21;;;;;;;1.10;1.10;;;;;;;13.43;67.01;101942.91;6337930;28;20188;-76
2021/08/22 04:59:25;;;;;;;1.10;1.10;;;;;;;13.58;67.39;101935.34;6337591;28;20187;-76
2021/08/22 05:02:30;;;;;;;2.67;1.30;;;;;;;13.48;67.68;101940.38;6336485;28;20501;-76
2021/08/22 05:05:34;;;;;;;1.20;1.20;;;;;;;13.38;67.14;101934.47;6336166;28;20473;-76
2021/08/22 05:08:39;;;;;;;1.10;1.10;;;;;;;13.53;67.30;101948.81;6336431;28;20244;-76
2021/08/22 05:11:45;;;;;;;1.25;1.25;;;;;;;13.46;68.20;101942.50;6337406;28;20244;-77
2021/08/22 05:14:49;;;;;;;2.35;1.38;;;;;;;13.55;67.52;101946.75;6341600;28;20214;-77
2021/08/22 05:17:56;;;;;;;1.10;1.10;;;;;;;13.50;68.37;101948.41;6342501;28;20182;-77
2021/08/22 05:21:00;;;;;;;1.25;1.25;;;;;;;13.51;67.21;101939.97;6340988;28;20478;-77
2021/08/22 05:24:05;;;;;;;1.20;1.20;;;;;;;13.58;67.10;101956.44;6341200;28;20186;-77
2021/08/22 05:27:11;;;;;;;1.00;1.00;;;;;;;13.64;67.79;101953.69;6342081;28;20186;-76
2021/08/22 05:30:15;;;;;;;1.33;1.33;;;;;;;13.51;68.13;101959.16;6341644;28;20194;-76
2021/08/22 05:33:19;;;;;;;1.08;1.08;;;;;;;13.36;67.26;101950.28;6340530;28;20400;-76
2021/08/22 05:36:24;;;;;;;1.10;1.10;;;;;;;13.50;67.70;101954.75;6340853;28;20572;-79
2021/08/22 05:39:29;;;;;;;1.27;1.27;;;;;;;13.71;67.10;101962.75;6341791;28;20191;-76
2021/08/22 05:42:34;;;;;;;1.10;1.10;;;;;;;13.68;68.93;101957.72;6340307;28;20628;-77
2021/08/22 05:45:38;;;;;;;1.23;1.20;;;;;;;13.66;69.14;101954.31;6322889;28;20230;-76
2021/08/22 05:48:42;;;;;;;1.00;1.00;;;;;;;13.71;69.89;101956.47;6340462;28;20228;-77
2021/08/22 05:51:47;;;;;;;1.30;1.30;;;;;;;13.71;70.28;101965.50;6341727;28;20187;-77
2021/08/22 05:54:51;;;;;;;1.40;1.30;;;;;;;13.76;68.67;101965.72;6340449;28;20274;-77
2021/08/22 05:57:57;;;;;;;1.13;1.13;;;;;;;13.84;69.08;101961.09;6341783;28;20190;-77
2021/08/22 06:01:01;;;;;;;1.02;1.02;;;;;;;13.91;68.17;101961.94;6341389;28;20289;-77
2021/08/22 06:04:05;;;;;;;4.50;1.00;;;;;;;13.93;67.83;101965.28;6341840;28;20234;-77
2021/08/22 06:07:17;;;;;;;1.20;1.20;;;;;;;13.90;69.96;101961.06;6340866;28;20183;-77
2021/08/22 06:10:23;;;;;;;1.20;1.10;;;;;;;14.00;69.04;101956.00;6340900;28;20193;-76
2021/08/22 06:13:29;;;;;;;1.20;1.20;;;;;;;14.07;68.72;101967.00;6341790;28;20190;-77
2021/08/22 06:16:33;;;;;;;0.98;0.98;;;;;;;13.88;68.40;101962.34;6340138;28;20375;-77
2021/08/22 06:19:38;;;;;;;1.10;1.10;;;;;;;13.99;68.15;101967.19;6340632;28;20190;-77
2021/08/22 06:22:43;;;;;;;2.65;1.13;;;;;;;14.15;67.73;101969.53;6339548;28;20378;-77
2021/08/22 06:25:50;;;;;;;1.10;1.10;;;;;;;14.15;67.84;101975.00;6338360;28;20543;-76
2021/08/22 06:28:55;;;;;;;1.00;1.00;;;;;;;14.21;67.86;101976.88;6339165;28;20317;-76
2021/08/22 06:31:59;;;;;;;12.75;1.58;;;;;;;14.28;67.24;101985.94;6321142;28;20496;-77
2021/08/22 06:35:04;;;;;;;1.00;1.00;;;;;;;14.43;67.18;101978.38;6340186;28;20262;-76
2021/08/22 06:38:10;;;;;;;1.05;1.05;;;;;;;14.52;67.12;101987.19;6340219;28;20183;-76
2021/08/22 06:41:15;;;;;;;0.90;0.90;;;;;;;14.65;66.58;101977.03;6338749;28;20324;-76
2021/08/22 06:44:21;;;;;;;1.10;1.10;;;;;;;14.83;65.72;101996.41;6338905;28;20490;-76
2021/08/22 06:47:26;;;;;;;1.10;1.10;;;;;;;15.23;66.10;101990.75;6339992;28;20190;-77
2021/08/22 06:50:30;;;;;;;1.10;1.10;;;;;;;15.54;62.64;101999.00;6338655;28;20535;-77
2021/08/22 06:53:34;;;;;;;1.20;1.10;;;;;;;15.85;63.47;101987.16;6320653;28;20198;-76
2021/08/22 06:56:38;;;;;;;1.42;1.10;;;;;;;15.84;60.14;101991.84;6339072;28;20214;-76
2021/08/22 06:59:44;;;;;;;1.20;1.20;;;;;;;15.80;61.35;101987.81;6338385;28;20183;-76
2021/08/22 07:02:48;;;;;;;1.20;1.20;;;;;;;15.89;61.29;101986.50;6338520;28;20585;-76
2021/08/22 07:05:53;;;;;;;1.15;1.02;;;;;;;15.71;60.59;101988.34;6338212;28;20470;-76
2021/08/22 07:08:57;;;;;;;1.02;1.02;;;;;;;15.78;61.73;101989.97;6339322;28;20221;-76
2021/08/22 07:12:01;;;;;;;1.27;1.27;;;;;;;15.90;61.22;101988.16;6339414;28;20252;-77
2021/08/22 07:15:08;;;;;;;1.20;1.15;;;;;;;15.91;60.53;101984.34;6338900;28;20183;-76
2021/08/22 07:18:12;;;;;;;1.02;1.02;;;;;;;15.97;60.70;101994.44;6337809;28;20190;-75
2021/08/22 07:21:16;;;;;;;1.40;1.30;;;;;;;16.00;60.30;101987.66;6338623;28;20207;-76
2021/08/22 07:24:21;;;;;;;1.00;1.00;;;;;;;16.06;60.30;101993.13;6338520;28;20249;-77
2021/08/22 07:27:25;;;;;;;1.17;1.17;;;;;;;16.04;60.04;101988.91;6338638;28;20187;-77
2021/08/22 07:30:31;;;;;;;1.00;1.00;;;;;;;16.05;59.60;101996.94;6337508;28;20203;-77
2021/08/22 07:33:36;;;;;;;1.55;1.00;;;;;;;16.10;60.11;101988.03;6337379;28;20376;-77
2021/08/22 07:36:42;;;;;;;1.23;1.23;;;;;;;16.15;59.47;101989.00;6338537;28;20186;-77
2021/08/22 07:39:46;;;;;;;1.05;1.05;;;;;;;16.18;59.49;101991.31;6338790;28;20220;-76
2021/08/22 07:42:51;;;;;;;1.17;1.17;;;;;;;16.12;59.91;101991.38;6340332;28;20210;-78
2021/08/22 07:45:56;;;;;;;1.13;1.13;;;;;;;16.01;60.35;101995.72;6337377;28;20470;-77
2021/08/22 07:49:01;;;;;;;1.10;1.10;;;;;;;16.06;60.22;101995.03;6338197;28;20293;-76
2021/08/22 07:52:06;;;;;;;2.55;1.35;;;;;;;16.08;59.64;102002.00;6338307;28;20187;-76
2021/08/22 07:55:12;;;;;;;1.00;1.00;;;;;;;15.89;59.39;101996.66;6338084;28;20227;-76
2021/08/22 07:58:16;;;;;;;1.10;1.10;;;;;;;15.95;59.95;101993.84;6339369;28;20193;-76
2021/08/22 08:01:24;;;;;;;2.17;1.10;;;;;;;15.93;58.08;101992.38;6337897;28;20222;-76
2021/08/22 08:04:29;;;;;;;1.20;1.20;;;;;;;15.92;58.88;101990.72;6311554;28;20431;-76
2021/08/22 08:07:32;;;;;;;1.13;1.13;;;;;;;16.07;58.88;101991.22;6311631;28;20215;-76
2021/08/22 08:10:37;;;;;;;1.00;1.00;;;;;;;16.02;60.13;101991.88;6312152;28;20262;-76
2021/08/22 08:13:41;;;;;;;1.25;1.13;;;;;;;15.92;58.48;101986.03;6311361;28;20473;-77
2021/08/22 08:16:46;;;;;;;1.10;1.10;;;;;;;16.05;59.19;101983.16;6313444;28;20184;-77
2021/08/22 08:19:51;;;;;;;1.15;1.15;;;;;;;15.99;59.73;101981.31;6311979;28;20499;-77
2021/08/22 08:22:55;;;;;;;1.40;1.10;;;;;;;15.86;57.14;101984.19;6313410;28;20262;-77
2021/08/22 08:26:00;;;;;;;1.02;1.02;;;;;;;16.01;57.57;101995.72;6311777;28;20252;-77
2021/08/22 08:29:07;;;;;;;1.00;1.00;;;;;;;16.05;58.47;101996.94;6312502;28;20184;-77
2021/08/22 08:32:13;;;;;;;1.85;1.00;;;;;;;16.17;58.25;101995.16;6312365;28;20255;-75
2021/08/22 08:35:17;;;;;;;4.05;1.45;;;;;;;16.08;57.38;102018.50;6312615;28;20190;-77
2021/08/22 08:38:21;;;;;;;1.30;1.30;;;;;;;16.22;57.29;102009.06;6312059;28;20184;-77
2021/08/22 08:41:25;;;;;;;1.35;1.35;;;;;;;16.25;56.84;102008.59;6311244;28;20214;-77
2021/08/22 08:44:30;;;;;;;1.20;1.20;;;;;;;16.35;56.75;102007.25;6310797;28;20400;-77
2021/08/22 08:47:37;;;;;;;1.10;1.00;;;;;;;16.37;57.24;102016.13;6309923;28;20466;-75
2021/08/22 08:50:43;;;;;;;2.00;1.23;;;;;;;16.41;72.34;102006.34;6311572;28;20383;-81
2021/08/22 08:53:47;;;;;;;42.90;3.15;;;;;;;15.87;56.24;102020.81;6313150;28;20187;-79
2021/08/22 08:56:52;;;;;;;1.30;1.30;;;;;;;15.77;53.67;102015.78;6314428;28;20187;-79
2021/08/22 08:59:56;;;;;;;1.25;1.20;;;;;;;15.86;54.13;102003.47;6314615;28;20447;-79
2021/08/22 09:03:02;;;;;;;5.25;1.40;;;;;;;16.06;70.84;102001.38;6326099;28;20309;-73
2021/08/22 09:06:49;;;;;;;2.30;1.48;;;;;;;15.90;55.04;102010.19;6336350;28;20190;-73
2021/08/22 09:10:40;;;;;;;1.10;1.10;;;;;;;15.92;53.37;102021.81;6335883;28;20479;-74
2021/08/22 09:14:32;;;;;;;1.30;1.30;;;;;;;15.84;49.23;102011.09;6211728;28;20222;-74
2021/08/22 09:18:16;;;;;;;1.25;1.23;;;;;;;15.93;50.56;102015.25;6309910;28;20411;-74
2021/08/22 09:21:57;;;;;;;1.40;1.40;;;;;;;15.99;48.48;102019.88;6335756;28;20183;-75
2021/08/22 09:25:46;;;;;;;2.45;1.70;;;;;;;16.02;49.01;102013.88;6336585;28;20258;-74
2021/08/22 09:29:50;;;;;;;1.50;1.50;;;;;;;16.08;48.26;102026.75;6336599;28;20214;-73
2021/08/22 09:33:39;;;;;;;1.40;1.40;;;;;;;16.08;47.72;102017.66;6315011;28;20270;-75
2021/08/22 09:37:34;;;;;;;1.25;1.25;;;;;;;16.15;47.85;102019.28;6272558;28;20223;-74
2021/08/22 09:41:17;;;;;;;1.40;1.40;;;;;;;16.25;48.66;102025.13;6336991;28;20246;-75
2021/08/22 09:45:03;;;;;;;4.45;1.65;;;;;;;16.33;47.78;102025.94;6336247;28;20215;-74
2021/08/22 09:48:41;;;;;;;1.45;1.45;;;;;;;16.41;47.08;102034.72;6336427;28;20183;-74
2021/08/22 09:52:21;;;;;;;1.30;1.30;;;;;;;16.34;48.28;102022.09;6336944;28;20190;-75
2021/08/22 09:56:16;;;;;;;1.60;1.55;;;;;;;16.41;47.81;102022.88;6313808;28;20550;-75
2021/08/22 10:00:09;;;;;;;1.30;1.30;;;;;;;16.50;52.00;102032.53;6337376;28;20250;-74
2021/08/22 10:03:48;;;;;;;1.50;1.50;;;;;;;16.49;47.05;102025.31;6340370;28;20230;-74
2021/08/22 10:07:11;;;;;;;1.33;1.30;;;;;;;16.60;47.08;102041.16;6340798;28;20183;-75
2021/08/22 10:10:18;;;;;;;1.67;1.58;;;;;;;16.69;47.06;102015.00;6340684;28;20246;-75
2021/08/22 10:13:22;;;;;;;3.53;1.42;;;;;;;16.70;46.70;102033.19;6339456;28;20386;-74
2021/08/22 10:16:27;;;;;;;1.23;1.23;;;;;;;16.80;46.85;102028.84;6340373;28;20190;-75
2021/08/22 10:19:35;;;;;;;2.22;1.77;;;;;;;16.88;48.22;102035.94;6340426;28;20183;-75
2021/08/22 10:22:39;;;;;;;1.67;1.50;;;;;;;16.90;48.13;102028.28;6340562;28;20207;-76
2021/08/22 10:25:51;;;;;;;1.23;1.23;;;;;;;17.02;48.63;102032.00;6339192;28;20187;-74
2021/08/22 10:29:04;;;;;;;1.48;1.38;;;;;;;17.10;48.89;102022.56;6339272;28;20481;-75
2021/08/22 10:32:14;;;;;;;1.45;1.45;;;;;;;17.06;50.02;102043.38;6340467;28;20190;-74
2021/08/22 10:35:23;;;;;;;1.30;1.30;;;;;;;16.98;51.00;102036.25;6339388;28;20187;-75
2021/08/22 10:38:29;;;;;;;1.20;1.20;;;;;;;17.07;50.18;102040.41;6340254;28;20184;-75
2021/08/22 10:41:36;;;;;;;2.42;1.17;;;;;;;17.21;49.55;102039.16;6339965;28;20250;-75
2021/08/22 10:44:41;;;;;;;1.10;1.10;;;;;;;17.32;47.53;102037.53;6338720;28;20475;-74
2021/08/22 10:47:46;;;;;;;1.02;1.02;;;;;;;17.47;48.76;102046.22;6338554;28;20496;-74
2021/08/22 10:51:16;;;;;;;1.25;1.25;;;;;;;17.59;49.98;102043.56;6338805;28;20498;-74
2021/08/22 10:54:21;;;;;;;1.20;1.20;;;;;;;17.65;46.22;102042.59;6324555;28;20248;-75
2021/08/22 10:57:52;;;;;;;1.00;1.00;;;;;;;17.82;46.57;102049.16;6339132;28;20218;-76
2021/08/22 11:01:19;;;;;;;1.30;1.20;;;;;;;17.76;43.48;102041.81;6339363;28;20199;-75
2021/08/22 11:04:27;;;;;;;3.95;1.20;;;;;;;17.91;45.57;102042.22;6339440;28;20234;-74
2021/08/22 11:07:33;;;;;;;1.30;1.30;;;;;;;18.02;44.10;102038.66;6337889;28;20251;-76
2021/08/22 11:10:40;;;;;;;1.33;1.23;;;;;;;17.90;45.28;102051.56;6319241;28;20199;-75
2021/08/22 11:13:53;;;;;;;1.15;1.15;;;;;;;17.79;45.87;102041.34;6337810;28;20208;-76
2021/08/22 11:16:59;;;;;;;1.40;1.30;;;;;;;17.87;44.01;102046.53;6337841;28;20472;-75
2021/08/22 11:20:12;;;;;;;1.55;1.13;;;;;;;17.91;44.83;102054.09;6338989;28;20190;-75
2021/08/22 11:23:19;;;;;;;1.30;1.30;;;;;;;17.93;43.34;102051.09;6338791;28;20293;-74
2021/08/22 11:26:23;;;;;;;1.27;1.17;;;;;;;17.85;43.47;102055.03;6338608;28;20236;-73
2021/08/22 11:29:29;;;;;;;1.27;1.27;;;;;;;17.92;44.09;102054.94;6338638;28;20190;-75
2021/08/22 11:32:33;;;;;;;1.75;1.60;;;;;;;18.18;46.13;102048.16;6338460;28;20290;-75
2021/08/22 11:35:39;;;;;;;1.25;1.25;;;;;;;18.29;45.27;102048.16;6338651;28;20232;-74
2021/08/22 11:38:46;;;;;;;1.70;1.60;;;;;;;18.45;45.31;102055.75;6338702;28;20349;-74
2021/08/22 11:41:51;;;;;;;1.38;1.25;;;;;;;18.56;45.22;102052.19;6337343;28;20491;-75
2021/08/22 11:45:07;;;;;;;1.25;1.25;;;;;;;18.43;44.11;102055.16;6338251;28;20293;-74
2021/08/22 11:48:16;;;;;;;1.38;1.38;;;;;;;18.48;45.83;102054.47;6337097;28;20415;-74
2021/08/22 11:51:21;;;;;;;1.20;1.20;;;;;;;18.51;41.56;102049.31;6337198;28;20190;-74
2021/08/22 11:54:31;;;;;;;3.08;2.45;;;;;;;18.48;43.11;102049.78;6338566;28;20225;-74
2021/08/22 11:57:40;;;;;;;1.48;1.48;;;;;;;18.41;42.98;102059.25;6338027;28;20189;-75
2021/08/22 12:00:46;;;;;;;1.20;1.20;;;;;;;18.49;42.65;102056.97;6336739;28;20230;-75
2021/08/22 12:04:00;;;;;;;1.95;1.80;;;;;;;18.62;43.86;102050.34;6337844;28;20301;-75
2021/08/22 12:07:09;;;;;;;2.05;1.40;;;;;;;18.66;43.51;102052.41;6337100;28;20388;-74
2021/08/22 12:10:27;;;;;;;1.48;1.48;;;;;;;18.72;43.47;102040.38;6336692;28;20534;-73
2021/08/22 12:13:31;;;;;;;1.42;1.42;;;;;;;18.80;45.24;102052.16;6336509;28;20378;-74
2021/08/22 12:16:38;;;;;;;1.98;1.65;;;;;;;18.81;45.74;102051.06;6336513;28;20230;-73
2021/08/22 12:19:42;;;;;;;1.40;1.40;;;;;;;18.69;43.66;102049.16;6338094;28;20250;-75
2021/08/22 12:23:03;;;;;;;1.27;1.27;;;;;;;18.89;42.62;102039.66;6336614;28;20255;-72
2021/08/22 12:26:22;;;;;;;2.13;2.03;;;;;;;18.64;44.17;102049.03;6337137;28;20219;-75
2021/08/22 12:29:28;;;;;;;1.35;1.35;;;;;;;18.64;42.66;102057.31;6337211;28;20183;-74
2021/08/22 12:32:35;;;;;;;1.60;1.60;;;;;;;18.81;42.56;102049.16;6337079;28;20214;-74
2021/08/22 12:35:39;;;;;;;2.58;1.50;;;;;;;19.02;43.66;102058.75;6337712;28;20191;-73
2021/08/22 12:38:46;;;;;;;1.52;1.42;;;;;;;18.99;42.38;102050.94;6337414;28;20536;-72
2021/08/22 12:41:53;;;;;;;1.52;1.52;;;;;;;19.01;43.58;102054.28;6337059;28;20189;-73
2021/08/22 12:44:57;;;;;;;1.65;1.30;;;;;;;18.88;44.33;102049.00;6336907;28;20281;-76
2021/08/22 12:48:01;;;;;;;1.33;1.33;;;;;;;18.91;43.87;102054.06;6336850;28;20237;-73
2021/08/22 12:51:09;;;;;;;1.60;1.50;;;;;;;18.97;44.56;102053.09;6336357;28;20183;-73
2021/08/22 12:54:13;;;;;;;1.48;1.48;;;;;;;18.91;43.95;102059.59;6335952;28;20498;-76
2021/08/22 12:57:18;;;;;;;2.42;1.35;;;;;;;18.89;44.02;102061.78;6337352;28;20223;-74
2021/08/22 13:00:22;;;;;;;1.75;1.65;;;;;;;18.86;46.16;102056.72;6336129;28;20547;-75
2021/08/22 13:03:27;;;;;;;2.08;1.25;;;;;;;18.98;45.13;102065.81;6336799;28;20257;-74
2021/08/22 13:06:31;;;;;;;1.65;1.55;;;;;;;19.09;44.47;102056.69;6336268;28;20238;-76
2021/08/22 13:09:35;;;;;;;3.90;1.40;;;;;;;19.05;44.22;102055.50;6337323;28;20183;-76
2021/08/22 13:12:41;;;;;;;1.63;1.63;;;;;;;18.91;42.85;102060.44;6337345;28;20214;-73
2021/08/22 13:15:45;;;;;;;1.50;1.40;;;;;;;18.89;43.54;102061.78;6337014;28;20194;-75
2021/08/22 13:18:50;;;;;;;1.83;1.20;;;;;;;19.01;44.22;102066.19;6336004;28;20470;-74
2021/08/22 13:21:55;;;;;;;1.15;1.15;;;;;;;19.03;43.92;102068.72;6336788;28;20187;-74
2021/08/22 13:25:01;;;;;;;16.70;1.67;;;;;;;19.12;44.44;102067.25;6336918;28;20207;-74
2021/08/22 13:28:08;;;;;;;1.50;1.50;;;;;;;19.16;43.04;102068.44;6337210;28;20191;-73
2021/08/22 13:31:12;;;;;;;1.40;1.40;;;;;;;19.25;43.01;102072.53;6337149;28;20183;-75
2021/08/22 13:34:16;;;;;;;5.38;1.17;;;;;;;19.16;43.65;102072.06;6337361;28;20214;-73
2021/08/22 13:37:20;;;;;;;1.40;1.40;;;;;;;19.47;42.79;102070.78;6341576;28;20252;-72
2021/08/22 13:40:25;;;;;;;1.08;1.08;;;;;;;19.40;41.98;102075.63;6340783;28;20267;-73
2021/08/22 13:43:30;;;;;;;1.95;1.50;;;;;;;19.50;41.94;102070.31;6340435;28;20467;-74
2021/08/22 13:46:34;;;;;;;1.25;1.25;;;;;;;19.25;40.88;102078.06;6340204;28;20214;-75
2021/08/22 13:49:38;;;;;;;5.25;1.48;;;;;;;19.28;42.47;102066.50;6341409;28;20250;-74
2021/08/22 13:52:44;;;;;;;2.78;1.30;;;;;;;19.41;42.56;102082.00;6340334;28;20440;-74
2021/08/22 13:55:48;;;;;;;1.75;1.40;;;;;;;19.47;43.65;102081.84;6341470;28;20255;-74
2021/08/22 13:58:54;;;;;;;1.25;1.25;;;;;;;19.52;44.34;102076.41;6340306;28;20482;-74
2021/08/22 14:01:58;;;;;;;1.20;1.20;;;;;;;19.46;44.43;102080.19;6340488;28;20235;-73
2021/08/22 14:05:03;;;;;;;1.25;1.25;;;;;;;19.32;44.22;102085.13;6340747;28;20211;-75
2021/08/22 14:08:07;;;;;;;1.45;1.45;;;;;;;19.29;44.00;102084.75;6340975;28;20183;-74
2021/08/22 14:11:12;;;;;;;1.83;1.42;;;;;;;19.29;44.11;102090.31;6341894;28;20182;-74
2021/08/22 14:14:18;;;;;;;3.20;2.13;;;;;;;19.39;43.94;102084.19;6339958;28;20515;-74
2021/08/22 14:17:22;;;;;;;1.58;1.50;;;;;;;19.42;43.79;102079.00;6340182;28;20225;-75
2021/08/22 14:20:28;;;;;;;1.20;1.20;;;;;;;19.51;42.98;102083.06;6340960;28;20250;-75
2021/08/22 14:23:32;;;;;;;1.30;1.30;;;;;;;19.48;42.22;102083.56;6340763;28;20183;-73
2021/08/22 14:26:36;;;;;;;1.40;1.40;;;;;;;19.50;42.78;102086.06;6340675;28;20214;-75
2021/08/22 14:29:42;;;;;;;1.50;1.50;;;;;;;19.56;42.91;102083.16;6340669;28;20250;-75
2021/08/22 14:32:46;;;;;;;1.30;1.30;;;;;;;19.46;44.09;102071.91;6339389;28;20356;-75
2021/08/22 14:35:51;;;;;;;1.20;1.20;;;;;;;19.45;43.71;102078.50;6340199;28;20186;-75